Terminal Aerodrome Forecast
Issued by NWS

Home | Current Version | Previous Version | Text Only | Print | Product List | Glossary On
Versions: 1 2 3 4 5 6 7 8 9 10 11 12 13 14 15 16 17 18 19 20 21 22 23 24 25 26
000
FTUS42 KJAX 180924 AAA
TAFVQQ
TAF AMD
KVQQ 180924Z 1809/1906 35008KT P6SM SCT030
      TEMPO 1812/1814 BKN030
     FM181400 03013G23KT P6SM VCSH SCT025 BKN035
     FM182300 03008KT P6SM SCT030 BKN050=

USA.gov is the U.S. government's official web portal to all federal, state and local government web resources and services.